Impacts TAF Board INFO
FOR SITUATIONAL AWARENESS. NOT TO BE USED FOR FLIGHT PLANNING PURPOSES.
IDs:

KPHX - Phoenix/Sky Harbor, AZ, US

Issued at 0254 UTC 25 May 2017
Updated at 0305 UTC 25 May 2017
Potential Impact None Slight Moderate High
Time0251Z 25/04Z 25/05Z 25/06Z 25/07Z 25/08Z 25/09Z 25/10Z 25/11Z 25/12Z 25/13Z 25/14Z 25/15Z 25/16Z>>
Type OBS PRVL PRVL PRVL PRVL PRVL PRVL PRVL PRVL PRVL PRVL PRVL PRVL PRVL
VIS 10 >6 >6 >6 >6 >6 >6 >6 >6 >6 >6 >6 >6 >6
CIG 190 200 200 200 250 250 250 250 250 250 250 250 250 250
Cover BKN BKN BKN BKN BKN BKN BKN BKN BKN BKN BKN BKN BKN BKN
FltCat VFR VFR VFR VFR VFR VFR VFR VFR VFR VFR VFR VFR VFR VFR
WX -- -- -- -- -- -- -- -- -- -- -- -- -- --
WDir 230 270 270 270 240 240 140 140 140 140 140 140 140 140
WSpd 12 12 12 12 6 6 6 6 6 6 6 6 6 6
WGst -- 20 20 20 -- -- -- -- -- -- -- -- -- --

Raw TAF
KPHX 250254Z 2503/2524 27012G20KT P6SM BKN200
  FM250700 24006KT P6SM BKN250
  FM250900 14006KT P6SM BKN250
  FM251900 24012G22KT P6SM SCT250


Raw METAR
KPHX 250251Z 23012KT 10SM FEW120 BKN190 BKN240 37/M03 A2956 RMK AO2 SLP987 T03721028 55003
KPHX 250151Z 24015KT 10SM SCT120 BKN200 BKN250 38/M04 A2955 RMK AO2 SLP985 T03831039
KPHX 250051Z 23018KT 10SM FEW120 BKN200 BKN250 40/M03 A2956 RMK AO2 SLP987 T04001033

METAR Board
Radar Display
Forecast Discussion

FOR SITUATIONAL AWARENESS. NOT TO BE USED FOR FLIGHT PLANNING PURPOSES.

Page loaded:  03:05 UTC  |   08:05 PM Pacific  |   09:05 PM Mountain  |   10:05 PM Central  |   11:05 PM Eastern

 

ADVISORIES

FORECASTS

FORECASTS

OBSERVATIONS

USER TOOLS

ABOUT US